CCA2962 ZUUU-ZBTJ
Flight info
| Callsign | CCA2962 |
|---|---|
| Flight time | 2h 4m |
| Altitude | 41100 |
| Route | GURET9W GURET W233 AGULU W81 APIMI W275 NSH G212 TEKIL W85 OMDEK OMDEK5R |
| Aircraft | A359/H-SDE2E3GHIJ3J4J5LM1ORWXY/LB1D1 |
Departure
| Time | 2026-05-05 11:01 |
|---|---|
| Airport | Chengdu Shuangliu International Airport (ZUUU) |
Arrival
| Time | 2026-05-05 13:05 |
|---|---|
| Airport | Tianjin Binhai International Airport (ZBTJ) |
| Time | Latitude | Longitude | Altitude | Speed | Heading |
|---|---|---|---|---|---|
| 2026-05-05 10:33 | 30.57018 | 103.94860 | 1630 ft | 0 kts | 111° |
| 2026-05-05 10:52 | 30.57023 | 103.94846 | 1628 ft | 4 kts | 111° |
| 2026-05-05 10:53 | 30.57033 | 103.94817 | 1627 ft | 4 kts | 111° |
| 2026-05-05 10:53 | 30.57042 | 103.94790 | 1629 ft | 2 kts | 111° |
| 2026-05-05 10:53 | 30.57053 | 103.94766 | 1628 ft | 4 kts | 140° |
| 2026-05-05 10:53 | 30.57076 | 103.94751 | 1628 ft | 4 kts | 167° |
| 2026-05-05 10:54 | 30.57103 | 103.94748 | 1628 ft | 4 kts | 186° |
| 2026-05-05 10:54 | 30.57121 | 103.94752 | 1627 ft | 0 kts | 198° |
| 2026-05-05 10:56 | 30.57116 | 103.94750 | 1627 ft | 3 kts | 198° |
| 2026-05-05 10:56 | 30.57075 | 103.94733 | 1632 ft | 10 kts | 200° |
| 2026-05-05 10:56 | 30.56982 | 103.94696 | 1626 ft | 17 kts | 196° |
| 2026-05-05 10:57 | 30.56857 | 103.94659 | 1626 ft | 20 kts | 197° |
| 2026-05-05 10:57 | 30.56722 | 103.94598 | 1623 ft | 22 kts | 201° |
| 2026-05-05 10:57 | 30.56570 | 103.94528 | 1622 ft | 25 kts | 201° |
| 2026-05-05 10:57 | 30.56402 | 103.94450 | 1623 ft | 27 kts | 201° |
| 2026-05-05 10:58 | 30.56284 | 103.94396 | 1619 ft | 16 kts | 201° |
| 2026-05-05 10:58 | 30.56240 | 103.94351 | 1618 ft | 7 kts | 255° |
| 2026-05-05 10:58 | 30.56261 | 103.94274 | 1619 ft | 12 kts | 292° |
| 2026-05-05 10:58 | 30.56295 | 103.94178 | 1615 ft | 14 kts | 292° |
| 2026-05-05 10:59 | 30.56313 | 103.94127 | 1617 ft | 0 kts | 292° |
| 2026-05-05 10:59 | 30.56325 | 103.94092 | 1614 ft | 7 kts | 292° |
| 2026-05-05 10:59 | 30.56356 | 103.94037 | 1616 ft | 9 kts | 321° |
| 2026-05-05 11:00 | 30.56406 | 103.94037 | 1620 ft | 7 kts | 15° |
| 2026-05-05 11:00 | 30.56453 | 103.94054 | 1617 ft | 7 kts | 21° |
| 2026-05-05 11:00 | 30.56569 | 103.94108 | 1623 ft | 45 kts | 22° |
| 2026-05-05 11:00 | 30.57087 | 103.94348 | 1626 ft | 113 kts | 22° |
| 2026-05-05 11:01 | 30.58001 | 103.94770 | 1640 ft | 168 kts | 21° |
| 2026-05-05 11:01 | 30.59120 | 103.95279 | 2261 ft | 171 kts | 22° |
| 2026-05-05 11:01 | 30.60239 | 103.95799 | 2872 ft | 177 kts | 25° |
| 2026-05-05 11:01 | 30.61385 | 103.96373 | 3477 ft | 183 kts | 25° |
| 2026-05-05 11:02 | 30.62636 | 103.96965 | 3767 ft | 206 kts | 24° |
| 2026-05-05 11:02 | 30.64051 | 103.97614 | 4085 ft | 230 kts | 23° |
| 2026-05-05 11:02 | 30.65600 | 103.98326 | 4489 ft | 252 kts | 23° |
| 2026-05-05 11:02 | 30.67230 | 103.99269 | 4860 ft | 271 kts | 39° |
| 2026-05-05 11:03 | 30.68456 | 104.00933 | 5541 ft | 274 kts | 58° |
| 2026-05-05 11:03 | 30.69492 | 104.02810 | 6365 ft | 278 kts | 60° |
| 2026-05-05 11:03 | 30.70522 | 104.04729 | 7165 ft | 282 kts | 59° |
| 2026-05-05 11:03 | 30.71578 | 104.06682 | 7979 ft | 289 kts | 59° |
| 2026-05-05 11:04 | 30.72665 | 104.08678 | 8844 ft | 295 kts | 59° |
| 2026-05-05 11:04 | 30.73773 | 104.10705 | 9685 ft | 298 kts | 58° |
| 2026-05-05 11:04 | 30.74972 | 104.12695 | 10155 ft | 306 kts | 50° |
| 2026-05-05 11:04 | 30.76687 | 104.14248 | 10357 ft | 323 kts | 27° |
| 2026-05-05 11:05 | 30.78780 | 104.15334 | 10585 ft | 337 kts | 22° |
| 2026-05-05 11:05 | 30.81001 | 104.16372 | 10805 ft | 350 kts | 22° |
| 2026-05-05 11:05 | 30.83305 | 104.17453 | 10994 ft | 363 kts | 22° |
| 2026-05-05 11:05 | 30.85680 | 104.18581 | 11195 ft | 375 kts | 22° |
| 2026-05-05 11:06 | 30.88119 | 104.19749 | 11479 ft | 382 kts | 22° |
| 2026-05-05 11:06 | 30.90586 | 104.20937 | 11846 ft | 386 kts | 22° |
| 2026-05-05 11:06 | 30.93007 | 104.22326 | 12178 ft | 391 kts | 33° |
| 2026-05-05 11:06 | 30.94997 | 104.24409 | 12524 ft | 392 kts | 53° |
| 2026-05-05 11:07 | 30.96304 | 104.27219 | 12926 ft | 390 kts | 74° |
| 2026-05-05 11:07 | 30.96823 | 104.30298 | 13316 ft | 388 kts | 86° |
| 2026-05-05 11:07 | 30.97084 | 104.33394 | 13669 ft | 390 kts | 87° |
| 2026-05-05 11:07 | 30.97324 | 104.36549 | 13999 ft | 393 kts | 87° |
| 2026-05-05 11:08 | 30.97572 | 104.39731 | 14319 ft | 395 kts | 87° |
| 2026-05-05 11:08 | 30.97828 | 104.42928 | 14640 ft | 398 kts | 86° |
| 2026-05-05 11:08 | 30.98090 | 104.46145 | 14978 ft | 400 kts | 86° |
| 2026-05-05 11:08 | 30.98356 | 104.49391 | 15279 ft | 404 kts | 86° |
| 2026-05-05 11:09 | 30.98624 | 104.52656 | 15613 ft | 406 kts | 86° |
| 2026-05-05 11:09 | 30.98893 | 104.55944 | 15963 ft | 408 kts | 86° |
| 2026-05-05 11:09 | 30.99164 | 104.59247 | 16303 ft | 411 kts | 86° |
| 2026-05-05 11:09 | 30.99437 | 104.62569 | 16635 ft | 413 kts | 86° |
| 2026-05-05 11:10 | 30.99710 | 104.65909 | 16972 ft | 415 kts | 86° |
| 2026-05-05 11:10 | 30.99982 | 104.69268 | 17300 ft | 418 kts | 86° |
| 2026-05-05 11:10 | 31.00255 | 104.72649 | 17627 ft | 420 kts | 86° |
| 2026-05-05 11:10 | 31.00530 | 104.76052 | 17957 ft | 422 kts | 86° |
| 2026-05-05 11:11 | 31.00805 | 104.79467 | 18235 ft | 425 kts | 85° |
| 2026-05-05 11:11 | 31.01080 | 104.82902 | 18510 ft | 427 kts | 85° |
| 2026-05-05 11:11 | 31.01356 | 104.86351 | 18781 ft | 429 kts | 85° |
| 2026-05-05 11:11 | 31.01632 | 104.89821 | 19054 ft | 431 kts | 85° |
| 2026-05-05 11:12 | 31.01916 | 104.93303 | 19335 ft | 433 kts | 84° |
| 2026-05-05 11:12 | 31.02513 | 104.96745 | 19603 ft | 435 kts | 71° |
| 2026-05-05 11:12 | 31.03804 | 104.99927 | 19871 ft | 436 kts | 58° |
| 2026-05-05 11:12 | 31.05411 | 105.02928 | 20162 ft | 437 kts | 56° |
| 2026-05-05 11:13 | 31.07065 | 105.05913 | 20425 ft | 439 kts | 56° |
| 2026-05-05 11:13 | 31.08722 | 105.08910 | 20716 ft | 441 kts | 56° |
| 2026-05-05 11:13 | 31.10380 | 105.11926 | 20992 ft | 442 kts | 56° |
| 2026-05-05 11:13 | 31.12041 | 105.14959 | 21265 ft | 444 kts | 56° |
| 2026-05-05 11:14 | 31.13704 | 105.18003 | 21535 ft | 446 kts | 56° |
| 2026-05-05 11:14 | 31.15374 | 105.21065 | 21795 ft | 448 kts | 56° |
| 2026-05-05 11:14 | 31.17049 | 105.24138 | 22055 ft | 450 kts | 56° |
| 2026-05-05 11:14 | 31.18733 | 105.27235 | 22319 ft | 452 kts | 56° |
| 2026-05-05 11:15 | 31.20420 | 105.30339 | 22593 ft | 453 kts | 56° |
| 2026-05-05 11:15 | 31.22085 | 105.33406 | 22898 ft | 453 kts | 56° |
| 2026-05-05 11:15 | 31.23777 | 105.36523 | 23141 ft | 455 kts | 56° |
| 2026-05-05 11:15 | 31.25507 | 105.39627 | 23377 ft | 457 kts | 54° |
| 2026-05-05 11:16 | 31.27283 | 105.42721 | 23580 ft | 459 kts | 54° |
| 2026-05-05 11:16 | 31.29076 | 105.45814 | 23806 ft | 460 kts | 54° |
| 2026-05-05 11:16 | 31.30877 | 105.48918 | 24039 ft | 461 kts | 54° |
| 2026-05-05 11:16 | 31.32677 | 105.52033 | 24253 ft | 463 kts | 54° |
| 2026-05-05 11:17 | 31.34478 | 105.55163 | 24472 ft | 465 kts | 54° |
| 2026-05-05 11:17 | 31.36280 | 105.58306 | 24706 ft | 466 kts | 54° |
| 2026-05-05 11:17 | 31.38085 | 105.61464 | 24896 ft | 468 kts | 54° |
| 2026-05-05 11:17 | 31.39897 | 105.64640 | 25050 ft | 471 kts | 54° |
| 2026-05-05 11:18 | 31.41708 | 105.67829 | 25360 ft | 470 kts | 54° |
| 2026-05-05 11:18 | 31.43519 | 105.71017 | 25614 ft | 471 kts | 54° |
| 2026-05-05 11:18 | 31.45335 | 105.74213 | 25841 ft | 473 kts | 54° |
| 2026-05-05 11:18 | 31.47158 | 105.77422 | 26070 ft | 474 kts | 54° |
| 2026-05-05 11:19 | 31.48988 | 105.80643 | 26315 ft | 476 kts | 54° |
| 2026-05-05 11:19 | 31.50822 | 105.83878 | 26540 ft | 477 kts | 54° |
| 2026-05-05 11:19 | 31.52663 | 105.87128 | 26761 ft | 479 kts | 54° |
| 2026-05-05 11:19 | 31.54509 | 105.90385 | 27025 ft | 480 kts | 54° |
| 2026-05-05 11:20 | 31.56362 | 105.93657 | 27265 ft | 482 kts | 54° |
| 2026-05-05 11:20 | 31.58217 | 105.96937 | 27514 ft | 484 kts | 54° |
| 2026-05-05 11:20 | 31.60079 | 106.00233 | 27789 ft | 485 kts | 54° |
| 2026-05-05 11:20 | 31.61940 | 106.03530 | 28111 ft | 485 kts | 54° |
| 2026-05-05 11:21 | 31.63805 | 106.06841 | 28389 ft | 487 kts | 54° |
| 2026-05-05 11:21 | 31.65676 | 106.10162 | 28661 ft | 489 kts | 54° |
| 2026-05-05 11:21 | 31.67553 | 106.13496 | 28926 ft | 491 kts | 54° |
| 2026-05-05 11:21 | 31.69436 | 106.16842 | 29217 ft | 492 kts | 54° |
| 2026-05-05 11:22 | 31.71325 | 106.20204 | 29484 ft | 494 kts | 54° |
| 2026-05-05 11:22 | 31.73221 | 106.23581 | 29749 ft | 496 kts | 54° |
| 2026-05-05 11:22 | 31.75125 | 106.26976 | 29965 ft | 499 kts | 54° |
| 2026-05-05 11:22 | 31.77035 | 106.30387 | 30211 ft | 501 kts | 54° |
| 2026-05-05 11:23 | 31.78954 | 106.33818 | 30450 ft | 503 kts | 53° |
| 2026-05-05 11:23 | 31.80878 | 106.37254 | 30772 ft | 503 kts | 53° |
| 2026-05-05 11:23 | 31.82799 | 106.40686 | 31103 ft | 503 kts | 53° |
| 2026-05-05 11:23 | 31.84725 | 106.44132 | 31322 ft | 506 kts | 53° |
| 2026-05-05 11:24 | 31.86658 | 106.47598 | 31546 ft | 508 kts | 53° |
| 2026-05-05 11:24 | 31.88597 | 106.51082 | 31751 ft | 510 kts | 53° |
| 2026-05-05 11:24 | 31.90545 | 106.54584 | 31967 ft | 512 kts | 53° |
| 2026-05-05 11:24 | 31.92471 | 106.58043 | 32207 ft | 514 kts | 53° |
| 2026-05-05 11:25 | 31.94433 | 106.61567 | 32408 ft | 516 kts | 53° |
| 2026-05-05 11:25 | 31.96404 | 106.65109 | 32594 ft | 517 kts | 53° |
| 2026-05-05 11:25 | 31.98373 | 106.68660 | 32806 ft | 519 kts | 53° |
| 2026-05-05 11:25 | 32.00343 | 106.72220 | 33126 ft | 517 kts | 52° |
| 2026-05-05 11:26 | 32.02298 | 106.75756 | 33484 ft | 515 kts | 52° |
| 2026-05-05 11:26 | 32.04258 | 106.79299 | 33762 ft | 516 kts | 52° |
| 2026-05-05 11:26 | 32.06220 | 106.82841 | 34039 ft | 516 kts | 52° |
| 2026-05-05 11:26 | 32.08178 | 106.86385 | 34368 ft | 515 kts | 52° |
| 2026-05-05 11:27 | 32.10130 | 106.89924 | 34665 ft | 515 kts | 52° |
| 2026-05-05 11:27 | 32.12082 | 106.93467 | 34952 ft | 515 kts | 51° |
| 2026-05-05 11:27 | 32.14031 | 106.97007 | 35276 ft | 514 kts | 51° |
| 2026-05-05 11:27 | 32.15980 | 107.00548 | 35535 ft | 514 kts | 51° |
| 2026-05-05 11:28 | 32.17927 | 107.04089 | 35802 ft | 514 kts | 51° |
| 2026-05-05 11:28 | 32.19870 | 107.07629 | 36171 ft | 513 kts | 51° |
| 2026-05-05 11:28 | 32.21798 | 107.11155 | 36507 ft | 511 kts | 51° |
| 2026-05-05 11:28 | 32.23724 | 107.14677 | 36770 ft | 511 kts | 50° |
| 2026-05-05 11:29 | 32.25570 | 107.18282 | 37014 ft | 517 kts | 56° |
| 2026-05-05 11:29 | 32.27061 | 107.22177 | 37317 ft | 522 kts | 62° |
| 2026-05-05 11:29 | 32.28394 | 107.26174 | 37636 ft | 524 kts | 63° |
| 2026-05-05 11:29 | 32.29670 | 107.30213 | 37926 ft | 524 kts | 63° |
| 2026-05-05 11:30 | 32.30912 | 107.34265 | 38253 ft | 524 kts | 63° |
| 2026-05-05 11:30 | 32.32143 | 107.38322 | 38533 ft | 525 kts | 64° |
| 2026-05-05 11:30 | 32.33371 | 107.42381 | 38781 ft | 524 kts | 63° |
| 2026-05-05 11:30 | 32.34599 | 107.46432 | 39041 ft | 522 kts | 63° |
| 2026-05-05 11:31 | 32.35829 | 107.50469 | 39320 ft | 521 kts | 63° |
| 2026-05-05 11:31 | 32.37056 | 107.54495 | 39563 ft | 521 kts | 63° |
| 2026-05-05 11:31 | 32.38287 | 107.58527 | 39750 ft | 521 kts | 63° |
| 2026-05-05 11:32 | 32.40769 | 107.66647 | 39909 ft | 527 kts | 63° |
| 2026-05-05 11:32 | 32.42011 | 107.70723 | 40123 ft | 527 kts | 63° |
| 2026-05-05 11:32 | 32.43252 | 107.74805 | 40327 ft | 527 kts | 63° |
| 2026-05-05 11:32 | 32.44490 | 107.78882 | 40567 ft | 526 kts | 63° |
| 2026-05-05 11:33 | 32.45730 | 107.82969 | 40694 ft | 527 kts | 63° |
| 2026-05-05 11:33 | 32.48232 | 107.91138 | 40785 ft | 525 kts | 60° |
| 2026-05-05 11:33 | 32.49813 | 107.94979 | 40785 ft | 514 kts | 51° |
| 2026-05-05 11:34 | 32.51821 | 107.98415 | 40786 ft | 501 kts | 41° |
| 2026-05-05 11:34 | 32.54218 | 108.01341 | 40796 ft | 489 kts | 32° |
| 2026-05-05 11:34 | 32.56923 | 108.03685 | 40754 ft | 476 kts | 22° |
| 2026-05-05 11:34 | 32.59840 | 108.05416 | 40771 ft | 464 kts | 13° |
| 2026-05-05 11:35 | 32.62870 | 108.06678 | 40781 ft | 461 kts | 9° |
| 2026-05-05 11:35 | 32.69005 | 108.08890 | 40769 ft | 460 kts | 7° |
| 2026-05-05 11:36 | 32.75157 | 108.11001 | 40766 ft | 459 kts | 8° |
| 2026-05-05 11:36 | 32.81296 | 108.13130 | 40770 ft | 460 kts | 8° |
| 2026-05-05 11:37 | 32.87421 | 108.15293 | 40792 ft | 459 kts | 8° |
| 2026-05-05 11:37 | 32.93548 | 108.17462 | 40767 ft | 460 kts | 8° |
| 2026-05-05 11:38 | 32.99633 | 108.19640 | 40761 ft | 460 kts | 8° |
| 2026-05-05 11:38 | 33.05764 | 108.21839 | 40773 ft | 460 kts | 8° |
| 2026-05-05 11:39 | 33.11892 | 108.24023 | 40795 ft | 460 kts | 8° |
| 2026-05-05 11:39 | 33.18030 | 108.26215 | 40782 ft | 461 kts | 8° |
| 2026-05-05 11:40 | 33.24170 | 108.28415 | 40786 ft | 461 kts | 8° |
| 2026-05-05 11:40 | 33.30308 | 108.30653 | 40796 ft | 464 kts | 11° |
| 2026-05-05 11:41 | 33.36291 | 108.33788 | 40825 ft | 473 kts | 17° |
| 2026-05-05 11:41 | 33.42208 | 108.37259 | 40822 ft | 474 kts | 18° |
| 2026-05-05 11:42 | 33.47116 | 108.40190 | 40820 ft | 474 kts | 18° |
| 2026-05-05 11:42 | 33.53024 | 108.43738 | 40832 ft | 474 kts | 18° |
| 2026-05-05 11:43 | 33.58911 | 108.47264 | 40843 ft | 472 kts | 18° |
| 2026-05-05 11:43 | 33.64793 | 108.50776 | 40815 ft | 473 kts | 18° |
| 2026-05-05 11:44 | 33.70682 | 108.54296 | 40816 ft | 473 kts | 18° |
| 2026-05-05 11:44 | 33.76564 | 108.57829 | 40802 ft | 472 kts | 18° |
| 2026-05-05 11:45 | 33.82449 | 108.61362 | 40787 ft | 473 kts | 18° |
| 2026-05-05 11:45 | 33.88341 | 108.64891 | 40770 ft | 473 kts | 18° |
| 2026-05-05 11:46 | 33.94236 | 108.68433 | 40743 ft | 473 kts | 18° |
| 2026-05-05 11:46 | 34.00126 | 108.71977 | 40722 ft | 474 kts | 18° |
| 2026-05-05 11:47 | 34.06018 | 108.75540 | 40730 ft | 474 kts | 18° |
| 2026-05-05 11:47 | 34.11876 | 108.79086 | 40699 ft | 474 kts | 18° |
| 2026-05-05 11:48 | 34.20731 | 108.84264 | 40670 ft | 465 kts | 12° |
| 2026-05-05 11:48 | 34.26885 | 108.86086 | 40688 ft | 451 kts | 1° |
| 2026-05-05 11:49 | 34.33092 | 108.87186 | 40659 ft | 450 kts | 360° |
| 2026-05-05 11:49 | 34.39309 | 108.88167 | 40668 ft | 451 kts | 359° |
| 2026-05-05 11:50 | 34.45526 | 108.89155 | 40673 ft | 451 kts | 360° |
| 2026-05-05 11:50 | 34.51747 | 108.90167 | 40684 ft | 451 kts | 360° |
| 2026-05-05 11:51 | 34.57969 | 108.91202 | 40685 ft | 453 kts | 1° |
| 2026-05-05 11:51 | 34.64172 | 108.93048 | 40685 ft | 461 kts | 7° |
| 2026-05-05 11:52 | 34.70340 | 108.95236 | 40699 ft | 462 kts | 8° |
| 2026-05-05 11:52 | 34.76505 | 108.97487 | 40720 ft | 463 kts | 8° |
| 2026-05-05 11:53 | 34.82681 | 108.99739 | 40703 ft | 464 kts | 8° |
| 2026-05-05 11:53 | 34.88848 | 109.02119 | 40702 ft | 466 kts | 9° |
| 2026-05-05 11:54 | 34.95005 | 109.04587 | 40714 ft | 466 kts | 9° |
| 2026-05-05 11:54 | 35.01166 | 109.07047 | 40717 ft | 466 kts | 9° |
| 2026-05-05 11:55 | 35.07330 | 109.09492 | 40730 ft | 466 kts | 9° |
| 2026-05-05 11:55 | 35.13491 | 109.11932 | 40740 ft | 466 kts | 9° |
| 2026-05-05 11:56 | 35.19598 | 109.14354 | 40729 ft | 463 kts | 9° |
| 2026-05-05 11:56 | 35.25753 | 109.16803 | 40740 ft | 462 kts | 9° |
| 2026-05-05 11:57 | 35.31817 | 109.19219 | 40736 ft | 461 kts | 9° |
| 2026-05-05 11:57 | 35.37928 | 109.21654 | 40734 ft | 461 kts | 9° |
| 2026-05-05 11:58 | 35.44028 | 109.24089 | 40750 ft | 462 kts | 9° |
| 2026-05-05 11:58 | 35.50143 | 109.26533 | 40737 ft | 463 kts | 9° |
| 2026-05-05 11:59 | 35.56264 | 109.28986 | 40729 ft | 463 kts | 9° |
| 2026-05-05 11:59 | 35.62387 | 109.31443 | 40734 ft | 463 kts | 9° |
| 2026-05-05 12:00 | 35.68510 | 109.33906 | 40740 ft | 464 kts | 9° |
| 2026-05-05 12:00 | 35.74571 | 109.36815 | 40722 ft | 477 kts | 19° |
| 2026-05-05 12:01 | 35.77419 | 109.39003 | 40728 ft | 488 kts | 28° |
| 2026-05-05 12:01 | 35.80001 | 109.41775 | 40721 ft | 500 kts | 38° |
| 2026-05-05 12:01 | 35.84404 | 109.48561 | 40720 ft | 509 kts | 45° |
| 2026-05-05 12:02 | 35.88526 | 109.55644 | 40733 ft | 508 kts | 46° |
| 2026-05-05 12:02 | 35.92615 | 109.62741 | 40729 ft | 507 kts | 46° |
| 2026-05-05 12:03 | 35.96728 | 109.69814 | 40738 ft | 507 kts | 46° |
| 2026-05-05 12:03 | 36.00825 | 109.76830 | 40734 ft | 507 kts | 46° |
| 2026-05-05 12:04 | 36.04947 | 109.83894 | 40745 ft | 506 kts | 46° |
| 2026-05-05 12:04 | 36.09052 | 109.90952 | 40731 ft | 505 kts | 46° |
| 2026-05-05 12:05 | 36.13151 | 109.98014 | 40714 ft | 505 kts | 46° |
| 2026-05-05 12:05 | 36.17244 | 110.05082 | 40722 ft | 505 kts | 46° |
| 2026-05-05 12:06 | 36.21344 | 110.12167 | 40717 ft | 506 kts | 46° |
| 2026-05-05 12:06 | 36.25425 | 110.19260 | 40709 ft | 504 kts | 46° |
| 2026-05-05 12:07 | 36.29477 | 110.26323 | 40711 ft | 503 kts | 46° |
| 2026-05-05 12:07 | 36.33531 | 110.33392 | 40702 ft | 503 kts | 46° |
| 2026-05-05 12:08 | 36.37581 | 110.40467 | 40705 ft | 503 kts | 46° |
| 2026-05-05 12:08 | 36.41633 | 110.47560 | 40707 ft | 504 kts | 46° |
| 2026-05-05 12:09 | 36.45665 | 110.54650 | 40712 ft | 501 kts | 46° |
| 2026-05-05 12:09 | 36.49657 | 110.61668 | 40717 ft | 501 kts | 46° |
| 2026-05-05 12:10 | 36.53680 | 110.68748 | 40699 ft | 502 kts | 46° |
| 2026-05-05 12:10 | 36.57703 | 110.75841 | 40736 ft | 502 kts | 46° |
| 2026-05-05 12:11 | 36.61723 | 110.82956 | 40727 ft | 502 kts | 46° |
| 2026-05-05 12:11 | 36.65727 | 110.90068 | 40742 ft | 501 kts | 46° |
| 2026-05-05 12:12 | 36.69729 | 110.97180 | 40737 ft | 501 kts | 47° |
| 2026-05-05 12:12 | 36.74104 | 111.03808 | 40753 ft | 493 kts | 40° |
| 2026-05-05 12:13 | 36.78666 | 111.10187 | 40754 ft | 493 kts | 39° |
| 2026-05-05 12:13 | 36.83259 | 111.16537 | 40745 ft | 492 kts | 39° |
| 2026-05-05 12:14 | 36.87832 | 111.22857 | 40793 ft | 490 kts | 39° |
| 2026-05-05 12:14 | 36.92397 | 111.29205 | 40745 ft | 492 kts | 39° |
| 2026-05-05 12:15 | 36.96953 | 111.35578 | 40758 ft | 491 kts | 39° |
| 2026-05-05 12:15 | 37.01504 | 111.41955 | 40750 ft | 491 kts | 39° |
| 2026-05-05 12:16 | 37.06056 | 111.48336 | 40749 ft | 491 kts | 39° |
| 2026-05-05 12:16 | 37.10606 | 111.54725 | 40743 ft | 491 kts | 39° |
| 2026-05-05 12:17 | 37.15155 | 111.61124 | 40740 ft | 492 kts | 39° |
| 2026-05-05 12:17 | 37.19708 | 111.67542 | 40742 ft | 492 kts | 39° |
| 2026-05-05 12:18 | 37.24241 | 111.73995 | 40736 ft | 496 kts | 42° |
| 2026-05-05 12:18 | 37.27986 | 111.81347 | 40746 ft | 509 kts | 53° |
| 2026-05-05 12:19 | 37.31289 | 111.89230 | 40748 ft | 511 kts | 54° |
| 2026-05-05 12:19 | 37.34506 | 111.97204 | 40733 ft | 512 kts | 54° |
| 2026-05-05 12:20 | 37.37733 | 112.05177 | 40738 ft | 511 kts | 54° |
| 2026-05-05 12:20 | 37.40969 | 112.13137 | 40725 ft | 511 kts | 54° |
| 2026-05-05 12:21 | 37.44199 | 112.21092 | 40739 ft | 510 kts | 54° |
| 2026-05-05 12:21 | 37.47424 | 112.29045 | 40729 ft | 510 kts | 54° |
| 2026-05-05 12:22 | 37.50647 | 112.37016 | 40721 ft | 511 kts | 54° |
| 2026-05-05 12:22 | 37.53861 | 112.44989 | 40723 ft | 511 kts | 54° |
| 2026-05-05 12:23 | 37.57067 | 112.52968 | 40699 ft | 509 kts | 55° |
| 2026-05-05 12:23 | 37.60262 | 112.60929 | 40705 ft | 509 kts | 55° |
| 2026-05-05 12:24 | 37.63464 | 112.68919 | 40696 ft | 511 kts | 55° |
| 2026-05-05 12:24 | 37.66664 | 112.76913 | 40697 ft | 511 kts | 55° |
| 2026-05-05 12:25 | 37.69858 | 112.84901 | 40702 ft | 508 kts | 55° |
| 2026-05-05 12:25 | 37.73022 | 112.92851 | 40736 ft | 506 kts | 55° |
| 2026-05-05 12:26 | 37.76184 | 113.00815 | 40714 ft | 508 kts | 55° |
| 2026-05-05 12:26 | 37.79352 | 113.08802 | 40721 ft | 508 kts | 55° |
| 2026-05-05 12:27 | 37.82509 | 113.16793 | 40712 ft | 507 kts | 55° |
| 2026-05-05 12:27 | 37.85626 | 113.24709 | 40705 ft | 506 kts | 55° |
| 2026-05-05 12:28 | 37.88760 | 113.32681 | 40713 ft | 506 kts | 55° |
| 2026-05-05 12:28 | 37.91894 | 113.40669 | 40699 ft | 507 kts | 55° |
| 2026-05-05 12:29 | 37.95019 | 113.48664 | 40704 ft | 505 kts | 55° |
| 2026-05-05 12:29 | 37.98134 | 113.56661 | 40694 ft | 507 kts | 55° |
| 2026-05-05 12:30 | 38.01240 | 113.64684 | 40686 ft | 507 kts | 55° |
| 2026-05-05 12:30 | 38.04345 | 113.72730 | 40681 ft | 509 kts | 55° |
| 2026-05-05 12:31 | 38.07450 | 113.80788 | 40669 ft | 508 kts | 55° |
| 2026-05-05 12:31 | 38.10545 | 113.88837 | 40659 ft | 507 kts | 56° |
| 2026-05-05 12:32 | 38.13133 | 113.95586 | 40649 ft | 507 kts | 55° |
| 2026-05-05 12:32 | 38.16200 | 114.03595 | 40658 ft | 508 kts | 56° |
| 2026-05-05 12:33 | 38.19288 | 114.11684 | 40651 ft | 509 kts | 56° |
| 2026-05-05 12:33 | 38.22380 | 114.19773 | 40639 ft | 509 kts | 55° |
| 2026-05-05 12:34 | 38.25473 | 114.27864 | 40638 ft | 509 kts | 55° |
| 2026-05-05 12:34 | 38.28561 | 114.35963 | 40639 ft | 509 kts | 56° |
| 2026-05-05 12:35 | 38.31643 | 114.44074 | 40637 ft | 509 kts | 55° |
| 2026-05-05 12:35 | 38.34725 | 114.52206 | 40637 ft | 510 kts | 56° |
| 2026-05-05 12:36 | 38.37802 | 114.60347 | 40636 ft | 510 kts | 56° |
| 2026-05-05 12:36 | 38.40871 | 114.68493 | 40637 ft | 510 kts | 56° |
| 2026-05-05 12:37 | 38.43934 | 114.76652 | 40639 ft | 510 kts | 56° |
| 2026-05-05 12:37 | 38.46982 | 114.84821 | 40641 ft | 510 kts | 56° |
| 2026-05-05 12:38 | 38.50035 | 114.92996 | 40644 ft | 510 kts | 56° |
| 2026-05-05 12:38 | 38.53085 | 115.01179 | 40654 ft | 510 kts | 56° |
| 2026-05-05 12:39 | 38.56122 | 115.09360 | 40663 ft | 509 kts | 56° |
| 2026-05-05 12:39 | 38.58773 | 115.17835 | 40653 ft | 524 kts | 68° |
| 2026-05-05 12:40 | 38.59405 | 115.22466 | 40653 ft | 535 kts | 79° |
| 2026-05-05 12:40 | 38.59389 | 115.27267 | 40656 ft | 546 kts | 90° |
| 2026-05-05 12:40 | 38.57704 | 115.36824 | 40640 ft | 554 kts | 102° |
| 2026-05-05 12:41 | 38.56609 | 115.41544 | 40436 ft | 554 kts | 103° |
| 2026-05-05 12:41 | 38.55470 | 115.46245 | 40190 ft | 554 kts | 103° |
| 2026-05-05 12:41 | 38.54322 | 115.50948 | 39949 ft | 555 kts | 103° |
| 2026-05-05 12:41 | 38.53179 | 115.55666 | 39713 ft | 556 kts | 102° |
| 2026-05-05 12:42 | 38.52046 | 115.60396 | 39475 ft | 557 kts | 102° |
| 2026-05-05 12:42 | 38.51094 | 115.65094 | 39081 ft | 547 kts | 92° |
| 2026-05-05 12:42 | 38.50919 | 115.69853 | 38465 ft | 529 kts | 76° |
| 2026-05-05 12:42 | 38.51627 | 115.74345 | 37760 ft | 505 kts | 60° |
| 2026-05-05 12:43 | 38.53028 | 115.78364 | 37114 ft | 490 kts | 52° |
| 2026-05-05 12:43 | 38.54602 | 115.82193 | 36503 ft | 486 kts | 52° |
| 2026-05-05 12:43 | 38.56179 | 115.85998 | 35878 ft | 484 kts | 53° |
| 2026-05-05 12:43 | 38.57741 | 115.89804 | 35260 ft | 483 kts | 54° |
| 2026-05-05 12:44 | 38.59292 | 115.93615 | 34561 ft | 484 kts | 55° |
| 2026-05-05 12:44 | 38.60844 | 115.97450 | 33833 ft | 487 kts | 56° |
| 2026-05-05 12:44 | 38.62397 | 116.01308 | 32989 ft | 489 kts | 57° |
| 2026-05-05 12:44 | 38.63927 | 116.05199 | 32184 ft | 492 kts | 59° |
| 2026-05-05 12:45 | 38.65065 | 116.09358 | 31337 ft | 502 kts | 73° |
| 2026-05-05 12:45 | 38.65428 | 116.13846 | 30410 ft | 513 kts | 87° |
| 2026-05-05 12:45 | 38.65358 | 116.18428 | 29390 ft | 519 kts | 90° |
| 2026-05-05 12:45 | 38.65217 | 116.23055 | 28473 ft | 519 kts | 90° |
| 2026-05-05 12:46 | 38.65077 | 116.27659 | 28045 ft | 518 kts | 90° |
| 2026-05-05 12:46 | 38.64944 | 116.32240 | 27399 ft | 512 kts | 90° |
| 2026-05-05 12:46 | 38.64951 | 116.36764 | 26734 ft | 505 kts | 83° |
| 2026-05-05 12:46 | 38.65572 | 116.41146 | 26078 ft | 497 kts | 72° |
| 2026-05-05 12:47 | 38.66526 | 116.45364 | 25442 ft | 491 kts | 71° |
| 2026-05-05 12:47 | 38.67521 | 116.49527 | 24795 ft | 487 kts | 71° |
| 2026-05-05 12:47 | 38.68506 | 116.53654 | 24167 ft | 483 kts | 71° |
| 2026-05-05 12:47 | 38.69477 | 116.57745 | 23534 ft | 478 kts | 71° |
| 2026-05-05 12:48 | 38.70434 | 116.61806 | 22803 ft | 475 kts | 71° |
| 2026-05-05 12:48 | 38.71375 | 116.65826 | 22152 ft | 469 kts | 72° |
| 2026-05-05 12:48 | 38.72295 | 116.69809 | 21508 ft | 463 kts | 72° |
| 2026-05-05 12:48 | 38.73199 | 116.73741 | 20870 ft | 458 kts | 72° |
| 2026-05-05 12:49 | 38.74092 | 116.77627 | 20224 ft | 453 kts | 72° |
| 2026-05-05 12:49 | 38.74975 | 116.81473 | 19579 ft | 448 kts | 72° |
| 2026-05-05 12:49 | 38.75848 | 116.85284 | 18928 ft | 444 kts | 72° |
| 2026-05-05 12:49 | 38.76714 | 116.89067 | 18291 ft | 441 kts | 72° |
| 2026-05-05 12:50 | 38.77572 | 116.92821 | 17583 ft | 438 kts | 72° |
| 2026-05-05 12:50 | 38.78417 | 116.96549 | 16892 ft | 433 kts | 73° |
| 2026-05-05 12:50 | 38.78920 | 117.00319 | 16260 ft | 428 kts | 88° |
| 2026-05-05 12:50 | 38.78554 | 117.04075 | 15615 ft | 423 kts | 107° |
| 2026-05-05 12:51 | 38.77550 | 117.07590 | 14969 ft | 418 kts | 112° |
| 2026-05-05 12:51 | 38.76427 | 117.11007 | 14321 ft | 414 kts | 113° |
| 2026-05-05 12:51 | 38.75308 | 117.14391 | 13675 ft | 410 kts | 112° |
| 2026-05-05 12:51 | 38.74253 | 117.17767 | 12973 ft | 406 kts | 108° |
| 2026-05-05 12:52 | 38.73762 | 117.21286 | 12327 ft | 399 kts | 90° |
| 2026-05-05 12:52 | 38.74180 | 117.24745 | 11720 ft | 390 kts | 70° |
| 2026-05-05 12:52 | 38.75234 | 117.27907 | 11219 ft | 381 kts | 62° |
| 2026-05-05 12:52 | 38.76378 | 117.30874 | 11077 ft | 363 kts | 62° |
| 2026-05-05 12:53 | 38.77472 | 117.33700 | 10945 ft | 345 kts | 62° |
| 2026-05-05 12:53 | 38.78516 | 117.36390 | 10840 ft | 329 kts | 60° |
| 2026-05-05 12:53 | 38.79817 | 117.38687 | 10693 ft | 310 kts | 40° |
| 2026-05-05 12:53 | 38.81587 | 117.40046 | 10573 ft | 289 kts | 15° |
| 2026-05-05 12:54 | 38.85258 | 117.39752 | 10299 ft | 264 kts | 332° |
| 2026-05-05 12:54 | 38.86765 | 117.38460 | 9958 ft | 260 kts | 321° |
| 2026-05-05 12:54 | 38.88351 | 117.37205 | 9732 ft | 277 kts | 332° |
| 2026-05-05 12:55 | 38.90094 | 117.36110 | 9534 ft | 278 kts | 332° |
| 2026-05-05 12:55 | 38.91842 | 117.35020 | 8951 ft | 281 kts | 332° |
| 2026-05-05 12:55 | 38.93601 | 117.33925 | 8504 ft | 281 kts | 331° |
| 2026-05-05 12:55 | 38.95362 | 117.32828 | 8142 ft | 282 kts | 331° |
| 2026-05-05 12:56 | 38.97130 | 117.31728 | 7791 ft | 283 kts | 331° |
| 2026-05-05 12:56 | 38.98900 | 117.30624 | 7434 ft | 283 kts | 331° |
| 2026-05-05 12:56 | 39.00675 | 117.29519 | 7072 ft | 284 kts | 330° |
| 2026-05-05 12:56 | 39.02443 | 117.28396 | 6715 ft | 284 kts | 330° |
| 2026-05-05 12:57 | 39.04212 | 117.27264 | 6358 ft | 284 kts | 330° |
| 2026-05-05 12:57 | 39.05978 | 117.26135 | 5997 ft | 284 kts | 330° |
| 2026-05-05 12:57 | 39.07749 | 117.25007 | 5639 ft | 284 kts | 329° |
| 2026-05-05 12:57 | 39.09522 | 117.23878 | 5270 ft | 284 kts | 329° |
| 2026-05-05 12:58 | 39.11289 | 117.22752 | 4926 ft | 283 kts | 328° |
| 2026-05-05 12:58 | 39.13056 | 117.21627 | 4577 ft | 284 kts | 327° |
| 2026-05-05 12:58 | 39.14817 | 117.20501 | 4280 ft | 279 kts | 327° |
| 2026-05-05 12:58 | 39.16520 | 117.19416 | 4139 ft | 266 kts | 327° |
| 2026-05-05 12:59 | 39.18143 | 117.18381 | 3973 ft | 255 kts | 326° |
| 2026-05-05 12:59 | 39.19697 | 117.17388 | 3836 ft | 243 kts | 326° |
| 2026-05-05 12:59 | 39.21256 | 117.16597 | 3698 ft | 242 kts | 341° |
| 2026-05-05 13:00 | 39.24247 | 117.18250 | 3226 ft | 249 kts | 63° |
| 2026-05-05 13:00 | 39.25035 | 117.20232 | 2968 ft | 248 kts | 72° |
| 2026-05-05 13:01 | 39.25771 | 117.25674 | 2672 ft | 163 kts | 141° |
| 2026-05-05 13:01 | 39.25034 | 117.26657 | 2458 ft | 145 kts | 150° |
| 2026-05-05 13:01 | 39.24261 | 117.27334 | 2260 ft | 124 kts | 168° |
| 2026-05-05 13:01 | 39.23494 | 117.27784 | 2081 ft | 121 kts | 166° |
| 2026-05-05 13:02 | 39.22743 | 117.28262 | 1918 ft | 120 kts | 166° |
| 2026-05-05 13:02 | 39.21989 | 117.28732 | 1751 ft | 120 kts | 166° |
| 2026-05-05 13:02 | 39.21236 | 117.29199 | 1605 ft | 119 kts | 166° |
| 2026-05-05 13:02 | 39.20501 | 117.29654 | 1438 ft | 119 kts | 166° |
| 2026-05-05 13:03 | 39.19748 | 117.30117 | 1304 ft | 121 kts | 164° |
| 2026-05-05 13:03 | 39.18992 | 117.30584 | 1130 ft | 120 kts | 162° |
| 2026-05-05 13:03 | 39.18243 | 117.31049 | 979 ft | 119 kts | 163° |
| 2026-05-05 13:03 | 39.17488 | 117.31502 | 844 ft | 122 kts | 163° |
| 2026-05-05 13:04 | 39.16698 | 117.31973 | 704 ft | 127 kts | 160° |
| 2026-05-05 13:04 | 39.15901 | 117.32475 | 533 ft | 128 kts | 156° |
| 2026-05-05 13:04 | 39.15098 | 117.32984 | 321 ft | 127 kts | 156° |
| 2026-05-05 13:04 | 39.14290 | 117.33486 | 162 ft | 131 kts | 156° |
| 2026-05-05 13:05 | 39.13464 | 117.33990 | 30 ft | 131 kts | 156° |
| 2026-05-05 13:05 | 39.12706 | 117.34451 | 12 ft | 105 kts | 154° |
| 2026-05-05 13:05 | 39.12146 | 117.34791 | 12 ft | 74 kts | 155° |
| 2026-05-05 13:05 | 39.11813 | 117.35069 | 14 ft | 42 kts | 129° |
| 2026-05-05 13:06 | 39.11760 | 117.35252 | 14 ft | 10 kts | 62° |
| 2026-05-05 13:06 | 39.11811 | 117.35258 | 12 ft | 12 kts | 337° |
| 2026-05-05 13:06 | 39.11908 | 117.35206 | 13 ft | 16 kts | 337° |
| 2026-05-05 13:06 | 39.12016 | 117.35137 | 13 ft | 19 kts | 333° |
| 2026-05-05 13:07 | 39.12142 | 117.35054 | 12 ft | 22 kts | 333° |
| 2026-05-05 13:07 | 39.12275 | 117.34984 | 13 ft | 18 kts | 354° |
| 2026-05-05 13:07 | 39.12319 | 117.35016 | 12 ft | 8 kts | 57° |
| 2026-05-05 13:07 | 39.12375 | 117.35042 | 12 ft | 11 kts | 347° |
| 2026-05-05 13:08 | 39.12473 | 117.35019 | 12 ft | 19 kts | 2° |
| 2026-05-05 13:08 | 39.12618 | 117.35030 | 12 ft | 22 kts | 4° |
| 2026-05-05 13:08 | 39.12777 | 117.35044 | 12 ft | 17 kts | 9° |
| 2026-05-05 13:08 | 39.12836 | 117.35127 | 12 ft | 5 kts | 61° |
| 2026-05-05 13:09 | 39.12840 | 117.35137 | 12 ft | 0 kts | 64° |